EDT,Max TemperatureF,Mean TemperatureF,Min TemperatureF,Max Dew PointF,MeanDew PointF,Min DewpointF,Max Humidity, Mean Humidity, Min Humidity, Max Sea Level PressureIn, Mean Sea Level PressureIn, Min Sea Level PressureIn, Max VisibilityMiles, Mean VisibilityMiles, Min VisibilityMiles, Max Wind SpeedMPH, Mean Wind SpeedMPH, Max Gust SpeedMPH,PrecipitationIn, CloudCover, Events, WindDirDegrees
2012-10-1,62,60,59,63,60,55,100,96,88,29.96,29.91,29.88,10,7,3,7,2,,0.14,8,Rain,81
2012-10-2,82,72,62,75,70,63,100,91,62,30.01,29.89,29.84,10,8,1,16,4,22,0.37,5,Rain,172
2012-10-3,80,74,69,72,68,63,100,83,54,30.24,30.12,30.01,10,9,0,9,3,,0.00,2,Fog-Rain,211
2012-10-4,75,68,59,64,62,59,100,85,57,30.29,30.24,30.19,10,10,10,6,1,,0.01,1,Rain,262
2012-10-5,78,66,53,63,57,50,100,80,36,30.24,30.16,30.07,10,10,5,5,0,,0.00,0,,200
2012-10-6,78,69,60,66,60,54,100,76,47,30.06,29.99,29.92,10,10,7,9,2,,0.00,3,Rain,226
2012-10-7,59,54,50,54,50,46,100,93,82,30.17,30.08,30.01,10,10,3,15,5,21,0.32,7,Rain,24
2012-10-8,50,47,44,46,44,41,100,87,76,30.25,30.20,30.17,10,9,2,12,6,18,0.01,8,Rain,27
2012-10-9,55,50,44,52,47,45,100,93,82,30.21,30.16,30.12,10,9,2,9,5,,0.00,8,,14
2012-10-10,69,58,48,54,49,46,100,77,49,30.17,30.09,30.04,10,10,7,8,2,,0.00,3,,265
2012-10-11,64,52,41,46,41,34,100,69,34,30.34,30.27,30.17,10,10,10,8,1,,0.00,0,,95
2012-10-12,71,56,42,52,45,41,100,74,33,30.35,30.26,30.21,10,10,7,7,1,,0.00,0,,359
2012-10-13,64,52,41,50,42,36,100,69,45,30.51,30.43,30.36,10,10,10,10,2,16,0.00,0,,78
2012-10-14,71,56,42,61,52,43,100,85,57,30.36,30.23,30.06,10,10,10,10,2,,0.00,3,,193
2012-10-15,71,61,51,66,57,43,100,80,43,30.07,29.90,29.76,10,10,4,10,6,18,0.21,4,Rain,214
2012-10-16,64,53,42,50,43,37,100,71,37,30.01,29.96,29.91,10,10,10,6,1,,0.00,0,,322
2012-10-17,69,56,44,50,46,41,100,73,37,30.04,29.98,29.94,10,10,4,9,2,,0.00,0,,179
2012-10-18,73,60,46,63,55,45,100,85,65,29.96,29.88,29.81,10,10,10,13,4,16,0.00,3,Rain,169
2012-10-19,71,60,50,63,48,30,100,68,23,29.82,29.78,29.74,10,8,0,17,4,23,0.33,2,Fog-Rain,214
2012-10-20,66,54,41,50,42,36,100,69,37,30.01,29.87,29.80,10,10,10,7,2,,0.00,0,,294
2012-10-21,64,52,41,45,41,36,100,72,34,30.19,30.13,30.02,10,10,10,12,1,,0.00,0,,5
2012-10-22,71,55,39,54,45,39,100,74,35,30.27,30.21,30.17,10,10,10,5,0,,0.00,0,,337
2012-10-23,77,60,44,54,50,45,100,73,36,30.23,30.18,30.14,10,10,10,8,1,,0.00,0,,209
2012-10-24,78,62,46,55,50,45,100,73,30,30.24,30.18,30.12,10,10,5,7,1,,0.00,0,,218
2012-10-25,77,62,48,59,55,48,100,79,44,30.21,30.16,30.13,10,10,10,6,0,,0.00,1,,156
2012-10-26,64,57,50,59,56,50,100,92,77,30.16,30.09,29.98,10,8,2,12,2,,0.00,2,,25
2012-10-27,68,64,60,61,56,50,100,78,60,29.97,29.83,29.76,10,9,4,17,9,24,0.00,3,,21
2012-10-28,68,60,51,50,46,39,82,60,43,29.76,29.69,29.63,10,10,10,17,12,26,0.00,3,,5
2012-10-29,51,46,42,39,33,32,76,62,54,29.67,29.58,29.44,10,10,10,17,8,28,0.00,7,Rain,312
2012-10-30,50,46,41,32,30,28,70,57,43,29.65,29.50,29.39,10,10,10,14,9,30,0.00,5,Rain,263
2012-10-31,51,43,35,36,33,32,87,66,47,29.81,29.73,29.65,10,10,10,12,5,16,0.00,4,,250